Latest Weather Observations for Rocky Gully South

IDW60801

Issued at 2:04 am WST Monday 29 May 2017 (issued every 30 minutes, with the page automatically refreshed every 10 minutes)

About weather observations | Map of weather stations | Latest weather observations for WA | Other Formats
Station Details ID: 009964 Name: ROCKY GULLY Lat: -34.57 Lon: 117.01 Height: 250.0 m
Data from the previous 72 hours. | See also: Recent months at Rocky Gully South
Date/Time
WST
Temp
°C
App
Temp
°C
Dew
Point
°C
Rel
Hum
%
Delta-T
°C
Wind Press
QNH
hPa
Press
MSL
hPa
Rain since
9am
mm
Dir  Spd
km/h
Gust
km/h
Spd
kts
Gust
kts
29/02:00am 10.1 8.3 7.3 83 1.4 NNW 6 7 3 4 - - 0.0
29/01:30am 10.4 9.8 7.6 83 1.4 CALM 0 0 0 0 - - 0.0
29/01:00am 10.1 8.8 7.5 84 1.3 N 4 7 2 4 - - 0.0
29/12:30am 9.6 9.0 7.5 87 1.0 CALM 0 0 0 0 - - 0.0
29/12:00am 10.1 9.7 8.4 89 0.8 CALM 0 0 0 0 - - 0.0
 
Date/Time
WST
Temp
°C
App
Temp
°C
Dew
Point
°C
Rel
Hum
%
Delta-T
°C
Wind Press
QNH
hPa
Press
MSL
hPa
Rain since
9am
mm
Dir  Spd
km/h
Gust
km/h
Spd
kts
Gust
kts
28/11:30pm 10.1 9.7 8.4 89 0.8 CALM 0 6 0 3 - - 0.0
28/11:00pm 10.0 9.6 8.1 88 0.9 CALM 0 0 0 0 - - 0.0
28/10:30pm 10.0 9.6 8.1 88 0.9 CALM 0 0 0 0 - - 0.0
28/10:00pm 10.1 9.7 8.2 88 0.9 CALM 0 0 0 0 - - 0.0
28/09:30pm 10.0 9.6 8.1 88 0.9 CALM 0 0 0 0 - - 0.0
28/09:00pm 9.9 9.4 8.0 88 0.9 CALM 0 0 0 0 - - 0.0
28/08:30pm 9.7 9.1 7.6 87 1.0 CALM 0 0 0 0 - - 0.0
28/08:00pm 9.6 9.0 7.5 87 1.0 CALM 0 0 0 0 - - 0.0
28/07:30pm 9.3 8.6 7.1 86 1.0 CALM 0 0 0 0 - - 0.0
28/07:00pm 9.3 7.8 6.7 84 1.2 SW 4 7 2 4 - - 0.0
28/06:30pm 9.6 8.8 6.7 82 1.4 CALM 0 0 0 0 - - 0.0
28/06:00pm 9.8 9.0 6.3 79 1.6 CALM 0 0 0 0 - - 0.0
28/05:30pm 10.2 9.0 6.5 78 1.8 NNE 2 7 1 4 - - 0.0
28/05:00pm 11.1 10.0 6.8 75 2.1 NNE 2 6 1 3 - - 0.0
28/04:30pm 12.4 11.4 7.3 71 2.5 NNE 2 7 1 4 - - 0.0
28/04:00pm 12.9 12.4 8.0 72 2.4 CALM 0 0 0 0 - - 0.0
28/03:30pm 13.5 13.0 7.9 69 2.8 CALM 0 0 0 0 - - 0.0
28/03:00pm 13.3 12.6 7.1 66 3.0 CALM 0 0 0 0 - - 0.0
28/02:30pm 13.4 12.8 7.6 68 2.9 CALM 0 0 0 0 - - 0.0
28/02:00pm 13.0 12.2 8.3 73 2.4 NNW 2 7 1 4 - - 0.0
28/01:30pm 13.0 11.4 7.9 71 2.5 NW 6 9 3 5 - - 0.0
28/01:00pm 13.0 11.3 7.7 70 2.6 W 6 9 3 5 - - 0.0
28/12:30pm 12.8 11.3 8.3 74 2.3 NW 6 11 3 6 - - 0.0
28/12:00pm 13.0 11.6 8.7 75 2.2 NW 6 9 3 5 - - 0.0
28/11:30am 12.6 11.0 8.7 77 2.0 N 7 11 4 6 - - 0.0
28/11:00am 12.2 10.8 9.0 81 1.6 NNW 6 11 3 6 - - 0.0
28/10:30am 11.6 10.1 9.3 86 1.2 N 7 11 4 6 - - 0.0
28/10:00am 11.3 9.9 9.7 90 0.8 NNW 7 11 4 6 - - 0.0
28/09:30am 10.7 9.3 9.5 92 0.6 N 7 11 4 6 - - 0.0
28/09:00am 10.4 9.1 9.3 93 0.6 N 6 9 3 5 - - 0.2
28/08:30am 9.8 9.2 8.9 94 0.4 NE 2 7 1 4 - - 0.2
28/08:00am 9.5 9.2 8.6 94 0.4 CALM 0 0 0 0 - - 0.2
28/07:30am 9.4 7.9 8.5 94 0.4 N 6 7 3 4 - - 0.2
28/07:00am 9.3 8.9 8.4 94 0.4 CALM 0 0 0 0 - - 0.2
28/06:30am 9.2 8.8 8.3 94 0.4 CALM 0 0 0 0 - - 0.2
28/06:00am 9.0 8.5 7.9 93 0.5 CALM 0 0 0 0 - - 0.2
28/05:30am 9.1 7.5 8.0 93 0.5 N 6 9 3 5 - - 0.2
28/05:00am 9.5 8.8 8.4 93 0.5 SW 2 7 1 4 - - 0.2
28/04:30am 9.0 8.1 7.9 93 0.5 SSW 2 7 1 4 - - 0.2
28/04:00am 9.0 8.5 7.9 93 0.5 CALM 0 0 0 0 - - 0.2
28/03:30am 9.1 8.3 8.0 93 0.5 WSW 2 7 1 4 - - 0.2
28/03:00am 9.1 8.3 8.0 93 0.5 WNW 2 7 1 4 - - 0.2
28/02:30am 8.9 7.3 7.8 93 0.5 SSW 6 11 3 6 - - 0.2
28/02:00am 9.0 8.5 7.9 93 0.5 CALM 0 0 0 0 - - 0.2
28/01:30am 9.1 8.6 8.0 93 0.5 CALM 0 0 0 0 - - 0.2
28/01:00am 8.9 8.4 7.7 92 0.6 CALM 0 0 0 0 - - 0.2
28/12:30am 9.2 8.7 8.0 92 0.6 CALM 0 0 0 0 - - 0.2
28/12:00am 9.4 8.6 8.2 92 0.6 SSW 2 9 1 5 - - 0.2
 
Date/Time
WST
Temp
°C
App
Temp
°C
Dew
Point
°C
Rel
Hum
%
Delta-T
°C
Wind Press
QNH
hPa
Press
MSL
hPa
Rain since
9am
mm
Dir  Spd
km/h
Gust
km/h
Spd
kts
Gust
kts
27/11:30pm 9.3 8.8 7.9 91 0.7 CALM 0 0 0 0 - - 0.2
27/11:00pm 9.3 8.8 7.9 91 0.7 CALM 0 0 0 0 - - 0.2
27/10:30pm 9.4 8.9 7.8 90 0.8 CALM 0 0 0 0 - - 0.2
27/10:00pm 9.8 9.4 8.2 90 0.8 CALM 0 0 0 0 - - 0.2
27/09:30pm 10.3 10.0 8.6 89 0.8 CALM 0 0 0 0 - - 0.2
27/09:00pm 10.5 10.2 8.6 88 0.9 CALM 0 6 0 3 - - 0.2
27/08:30pm 10.6 10.3 8.5 87 1.0 CALM 0 0 0 0 - - 0.2
27/08:00pm 10.8 10.5 8.6 86 1.1 CALM 0 0 0 0 - - 0.2
27/07:30pm 10.9 10.2 8.7 86 1.1 S 2 6 1 3 - - 0.2
27/07:00pm 11.0 10.7 8.6 85 1.2 CALM 0 0 0 0 - - 0.2
27/06:30pm 11.0 10.7 8.6 85 1.2 CALM 0 0 0 0 - - 0.2
27/06:00pm 11.0 10.6 8.2 83 1.4 CALM 0 0 0 0 - - 0.2
27/05:30pm 11.9 11.6 8.7 81 1.6 CALM 0 0 0 0 - - 0.2
27/05:00pm 12.5 11.2 9.1 80 1.7 S 6 9 3 5 - - 0.2
27/04:30pm 12.8 11.9 9.4 80 1.7 S 4 7 2 4 - - 0.2
27/04:00pm 13.0 11.7 9.8 81 1.7 SSW 7 11 4 6 - - 0.2
27/03:30pm 13.2 11.8 9.6 79 1.9 SW 7 11 4 6 - - 0.2
27/03:00pm 12.1 10.3 9.5 84 1.3 SSE 9 15 5 8 - - 0.2
27/02:30pm 12.6 10.4 9.4 81 1.6 S 11 22 6 12 - - 0.2
27/02:00pm 12.4 11.0 9.6 83 1.4 SW 7 11 4 6 - - 0.2
27/01:30pm 11.9 10.7 9.5 85 1.2 S 6 9 3 5 - - 0.2
27/01:00pm 12.9 11.6 10.1 83 1.5 S 7 15 4 8 - - 0.0
27/12:30pm 12.7 10.7 8.8 77 2.0 W 9 13 5 7 - - 0.0
27/12:00pm 13.4 12.2 9.6 78 2.0 WNW 6 9 3 5 - - 0.0
27/11:30am 11.7 9.7 8.7 82 1.5 S 9 17 5 9 - - 0.0
27/11:00am 12.1 10.2 8.9 81 1.6 SSW 9 15 5 8 - - 0.0
27/10:30am 12.0 11.8 10.4 90 0.8 NW 2 7 1 4 - - 0.0
27/10:00am 10.8 9.6 9.7 93 0.6 W 6 9 3 5 - - 0.0
27/09:30am 10.1 9.9 9.2 94 0.5 CALM 0 0 0 0 - - 0.0
27/09:00am 9.7 8.3 8.8 94 0.4 W 6 9 3 5 - - 2.0
27/08:30am 9.5 8.8 8.6 94 0.4 WSW 2 7 1 4 - - 2.0
27/08:00am 9.3 8.6 8.4 94 0.4 WNW 2 7 1 4 - - 2.0
27/07:30am 9.0 7.8 8.1 94 0.4 WNW 4 7 2 4 - - 2.0
27/07:00am 8.8 8.3 7.9 94 0.4 CALM 0 6 0 3 - - 2.0
27/06:30am 8.6 7.6 7.5 93 0.5 NW 2 7 1 4 - - 2.0
27/06:00am 8.6 6.9 7.5 93 0.5 NW 6 9 3 5 - - 2.0
27/05:30am 8.6 7.3 7.5 93 0.5 W 4 9 2 5 - - 1.8
27/05:00am 8.3 7.3 7.2 93 0.5 WNW 2 6 1 3 - - 1.8
27/04:30am 8.5 6.8 7.4 93 0.5 NNW 6 11 3 6 - - 1.8
27/04:00am 8.7 7.0 7.6 93 0.5 NNW 6 7 3 4 - - 1.8
27/03:30am 9.0 8.5 7.9 93 0.5 CALM 0 0 0 0 - - 1.8
27/03:00am 8.8 7.9 7.6 92 0.6 NNW 2 9 1 5 - - 1.6
27/02:30am 8.6 8.0 7.4 92 0.6 CALM 0 6 0 3 - - 1.6
27/02:00am 8.6 7.6 7.4 92 0.6 WSW 2 7 1 4 - - 1.6
27/01:30am 8.5 7.1 7.1 91 0.7 NNW 4 7 2 4 - - 1.6
27/01:00am 9.2 8.3 7.8 91 0.7 WSW 2 6 1 3 - - 1.6
27/12:30am 9.2 7.0 7.8 91 0.7 SSW 9 20 5 11 - - 1.4
27/12:00am 9.1 8.6 7.7 91 0.7 CALM 0 6 0 3 - - 1.4
 
Date/Time
WST
Temp
°C
App
Temp
°C
Dew
Point
°C
Rel
Hum
%
Delta-T
°C
Wind Press
QNH
hPa
Press
MSL
hPa
Rain since
9am
mm
Dir  Spd
km/h
Gust
km/h
Spd
kts
Gust
kts
26/11:30pm 9.1 8.6 7.7 91 0.7 CALM 0 0 0 0 - - 1.4
26/11:00pm 9.2 7.9 7.8 91 0.7 WSW 4 7 2 4 - - 1.4
26/10:30pm 9.1 7.8 7.7 91 0.7 W 4 7 2 4 - - 1.4
26/10:00pm 8.8 7.8 7.4 91 0.7 WNW 2 6 1 3 - - 1.4
26/09:30pm 8.7 8.1 7.3 91 0.7 CALM 0 4 0 2 - - 1.4
26/09:00pm 8.6 7.2 7.2 91 0.7 WSW 4 7 2 4 - - 1.4
26/08:30pm 9.2 7.6 7.8 91 0.7 SW 6 9 3 5 - - 1.4
26/08:00pm 9.8 8.3 8.4 91 0.7 WSW 6 9 3 5 - - 1.4
26/07:30pm 10.2 9.1 8.6 90 0.8 W 4 7 2 4 - - 1.4
26/07:00pm 10.7 9.4 9.1 90 0.8 SSW 6 7 3 4 - - 1.4
26/06:30pm 11.0 9.8 9.4 90 0.8 SW 6 11 3 6 - - 1.4
26/06:00pm 11.5 9.8 9.8 89 0.9 SW 9 20 5 11 - - 1.2
26/05:30pm 11.9 10.8 10.0 88 1.0 S 6 11 3 6 - - 0.8
26/05:00pm 11.9 10.8 9.8 87 1.1 SW 6 11 3 6 - - 0.8
26/04:30pm 12.2 10.9 9.9 86 1.2 SSW 7 13 4 7 - - 0.8
26/04:00pm 12.4 11.1 10.0 85 1.2 SW 7 15 4 8 - - 0.8
26/03:30pm 12.6 9.7 9.8 83 1.4 SW 15 30 8 16 - - 0.8
26/03:00pm 13.1 10.2 9.5 79 1.9 SSW 15 26 8 14 - - 0.8
26/02:30pm 14.7 13.1 10.3 75 2.3 SW 9 15 5 8 - - 0.6
26/02:00pm 14.0 12.5 10.6 80 1.8 SW 9 19 5 10 - - 0.6
26/01:30pm 12.7 9.9 10.1 84 1.4 SW 15 24 8 13 - - 0.6
26/01:00pm 14.1 12.5 10.3 78 2.0 SW 9 15 5 8 - - 0.2
26/12:30pm 13.2 10.3 9.6 79 1.9 SSW 15 26 8 14 - - 0.0
26/12:00pm 15.0 12.9 9.8 71 2.7 SW 11 20 6 11 - - 0.0
26/11:30am 13.7 11.3 9.9 78 2.0 WSW 13 24 7 13 - - 0.0
26/11:00am 13.1 10.7 10.1 82 1.6 SW 13 19 7 10 - - 0.0
26/10:30am 12.7 10.7 10.1 84 1.4 SW 11 20 6 11 - - 0.0
26/10:00am 13.0 11.5 10.4 84 1.4 WSW 9 19 5 10 - - 0.0
26/09:30am 12.1 10.1 10.0 87 1.1 W 11 19 6 10 - - 0.0
26/09:00am 11.5 9.7 9.6 88 1.0 W 9 17 5 9 - - 1.8
26/08:30am 10.9 9.4 9.2 89 0.9 WNW 7 13 4 7 - - 1.8
26/08:00am 10.7 8.8 9.1 90 0.8 WNW 9 17 5 9 - - 1.6
26/07:30am 10.2 9.1 8.5 89 0.8 WNW 4 9 2 5 - - 1.6
26/07:00am 10.4 9.4 8.7 89 0.8 NW 4 11 2 6 - - 1.6
26/06:30am 10.3 9.6 8.4 88 0.9 WNW 2 7 1 4 - - 1.6
26/06:00am 10.8 9.2 8.7 87 1.0 W 7 11 4 6 - - 1.6
26/05:30am 11.0 9.4 8.9 87 1.1 WSW 7 13 4 7 - - 1.6
26/05:00am 10.8 9.8 8.9 88 1.0 WSW 4 11 2 6 - - 1.6
26/04:30am 10.7 9.3 8.8 88 1.0 NW 6 9 3 5 - - 1.6
26/04:00am 11.0 9.7 9.3 89 0.9 WNW 6 13 3 7 - - 1.6
26/03:30am 11.5 10.4 9.9 90 0.8 WNW 6 11 3 6 - - 1.6
26/03:00am 11.9 10.8 10.5 91 0.7 W 7 13 4 7 - - 1.6
26/02:30am 12.0 10.5 10.6 91 0.7 W 9 13 5 7 - - 1.6

Other Formats:

Comma delimited format used in spreadsheet applications
http://www.bom.gov.au/fwo/IDW60801/IDW60801.94631.axf

JavaScript Object Notation format (JSON) in row-major order
http://www.bom.gov.au/fwo/IDW60801/IDW60801.94631.json